Time;durP1;ratioP1;P1;durP2;ratioP2;P2;SDS_P1;SDS_P2;PMS_P1;PMS_P2;Temp;Humidity;BMP_temperature;BMP_pressure;BME280_temperature;BME280_humidity;BME280_pressure;Samples;Min_cycle;Max_cycle;Signal;HPM_P1;HPM_P2
2024/01/12 00:01:15;;;;;;;;;;;;;;;2.91;100.00;103475.72;5027842;28;19928;-75
2024/01/12 00:03:40;;;;;;;;;;;;;;;2.93;100.00;103480.16;5024517;28;20835;-75
2024/01/12 00:06:06;;;;;;;;;;;;;;;2.97;100.00;103479.41;5025419;28;19917;-75
2024/01/12 00:08:34;;;;;;;;;;;;;;;3.01;100.00;103482.97;5026530;28;19941;-75
2024/01/12 00:10:59;;;;;;;;;;;;;;;2.98;100.00;103473.38;5024727;28;19976;-75
2024/01/12 00:13:24;;;;;;;;;;;;;;;2.96;100.00;103488.00;5025101;28;19924;-75
2024/01/12 00:15:50;;;;;;;;;;;;;;;2.94;100.00;103481.88;5029330;28;19917;-75
2024/01/12 00:18:15;;;;;;;;;;;;;;;2.96;100.00;103479.34;5028059;28;19925;-75
2024/01/12 00:20:43;;;;;;;;;;;;;;;2.94;100.00;103479.28;5027105;28;20007;-75
2024/01/12 00:23:09;;;;;;;;;;;;;;;2.94;100.00;103476.72;5036864;28;19988;-75
2024/01/12 00:25:34;;;;;;;;;;;;;;;2.98;100.00;103475.09;5038030;28;19916;-75
2024/01/12 00:28:00;;;;;;;;;;;;;;;2.96;100.00;103472.47;5044242;28;19917;-75
2024/01/12 00:30:25;;;;;;;;;;;;;;;2.95;100.00;103477.59;5055274;28;19927;-75
2024/01/12 00:32:50;;;;;;;;;;;;;;;2.93;100.00;103468.88;5042259;28;19917;-75
2024/01/12 00:35:15;;;;;;;;;;;;;;;2.90;100.00;103463.63;5036308;28;19917;-75
2024/01/12 00:37:41;;;;;;;;;;;;;;;2.89;100.00;103462.72;5039338;28;19920;-75
2024/01/12 00:40:06;;;;;;;;;;;;;;;2.90;100.00;103464.50;5035457;28;20162;-75
2024/01/12 00:42:31;;;;;;;;;;;;;;;2.93;100.00;103466.28;5035349;28;20299;-75
2024/01/12 00:44:57;;;;;;;;;;;;;;;2.90;100.00;103461.03;5035777;28;19919;-75
2024/01/12 00:47:22;;;;;;;;;;;;;;;2.87;100.00;103465.28;5026325;28;19918;-75
2024/01/12 00:49:47;;;;;;;;;;;;;;;2.86;100.00;103466.09;5015964;28;19913;-75
2024/01/12 00:52:12;;;;;;;;;;;;;;;2.88;100.00;103461.00;5017036;28;19917;-75
2024/01/12 00:54:38;;;;;;;;;;;;;;;2.87;100.00;103470.47;5018924;28;19951;-75
2024/01/12 00:57:03;;;;;;;;;;;;;;;2.88;100.00;103479.09;5037181;28;19921;-75
2024/01/12 00:59:28;;;;;;;;;;;;;;;2.86;100.00;103473.88;5026461;28;20120;-75
2024/01/12 01:01:57;;;;;;;;;;;;;;;2.84;100.00;103472.94;5052224;28;19913;-75
2024/01/12 01:04:23;;;;;;;;;;;;;;;2.93;100.00;103471.47;5041061;28;19951;-75
2024/01/12 01:06:48;;;;;;;;;;;;;;;2.97;100.00;103476.81;5035186;28;19940;-75
2024/01/12 01:09:13;;;;;;;;;;;;;;;2.96;100.00;103472.47;5026517;28;20046;-75
2024/01/12 01:11:38;;;;;;;;;;;;;;;2.94;100.00;103475.84;5026436;28;19948;-75
2024/01/12 01:14:04;;;;;;;;;;;;;;;2.90;100.00;103485.22;5034944;28;19916;-75
2024/01/12 01:16:29;;;;;;;;;;;;;;;2.88;100.00;103473.94;5033808;28;20165;-75
2024/01/12 01:18:54;;;;;;;;;;;;;;;2.92;100.00;103480.09;5027352;28;19984;-75
2024/01/12 01:21:19;;;;;;;;;;;;;;;2.89;100.00;103480.84;5028220;28;19916;-75
2024/01/12 01:23:45;;;;;;;;;;;;;;;2.96;100.00;103476.75;5026006;28;19923;-75
2024/01/12 01:26:10;;;;;;;;;;;;;;;2.95;100.00;103480.16;5024549;28;20254;-75
2024/01/12 01:28:35;;;;;;;;;;;;;;;2.96;100.00;103471.59;5024002;28;20184;-75
2024/01/12 01:31:00;;;;;;;;;;;;;;;2.95;100.00;103473.31;5025700;28;19952;-75
2024/01/12 01:33:26;;;;;;;;;;;;;;;3.03;100.00;103471.84;5025600;28;19924;-75
2024/01/12 01:35:51;;;;;;;;;;;;;;;3.00;100.00;103482.13;5029430;28;19911;-75
2024/01/12 01:38:16;;;;;;;;;;;;;;;2.97;100.00;103473.38;5026282;28;20174;-75
2024/01/12 01:40:42;;;;;;;;;;;;;;;2.96;100.00;103482.81;5026063;28;19958;-75
2024/01/12 01:43:11;;;;;;;;;;;;;;;2.95;100.00;103490.53;5025398;28;19917;-75
2024/01/12 01:45:36;;;;;;;;;;;;;;;2.95;100.00;103493.13;5026626;28;20287;-75
2024/01/12 01:48:05;;;;;;;;;;;;;;;2.97;100.00;103482.00;5028065;28;20207;-75
2024/01/12 01:50:30;;;;;;;;;;;;;;;3.03;100.00;103489.97;5023036;28;20238;-75
2024/01/12 01:52:56;;;;;;;;;;;;;;;3.03;100.00;103486.50;5029186;28;19956;-75
2024/01/12 01:55:21;;;;;;;;;;;;;;;3.00;100.00;103483.78;5025899;28;20108;-75
2024/01/12 01:57:47;;;;;;;;;;;;;;;3.00;100.00;103486.38;5034768;28;19921;-75
2024/01/12 02:00:12;;;;;;;;;;;;;;;2.99;100.00;103482.94;5033899;28;20156;-75
2024/01/12 02:02:38;;;;;;;;;;;;;;;2.95;100.00;103478.47;5034218;28;20208;-75
2024/01/12 02:05:05;;;;;;;;;;;;;;;2.96;100.00;103474.19;5031123;28;20209;-75
2024/01/12 02:07:30;;;;;;;;;;;;;;;2.99;100.00;103475.16;5030937;28;19924;-75
2024/01/12 02:09:56;;;;;;;;;;;;;;;3.05;100.00;103475.34;5023630;28;19921;-75
2024/01/12 02:12:21;;;;;;;;;;;;;;;3.00;100.00;103478.63;5038009;28;19979;-75
2024/01/12 02:14:46;;;;;;;;;;;;;;;2.98;100.00;103481.16;5036333;28;19917;-75
2024/01/12 02:17:12;;;;;;;;;;;;;;;2.97;100.00;103481.13;5040266;28;20286;-75
2024/01/12 02:19:37;;;;;;;;;;;;;;;2.95;100.00;103481.06;5039630;28;19928;-75
2024/01/12 02:22:02;;;;;;;;;;;;;;;2.95;100.00;103483.66;5036293;28;19924;-75
2024/01/12 02:24:28;;;;;;;;;;;;;;;2.96;100.00;103479.34;5036522;28;19921;-75
2024/01/12 02:26:53;;;;;;;;;;;;;;;2.97;100.00;103479.41;5046734;28;19924;-75
2024/01/12 02:29:19;;;;;;;;;;;;;;;3.01;100.00;103477.81;5039367;28;19917;-75
2024/01/12 02:31:44;;;;;;;;;;;;;;;2.98;100.00;103473.38;5040513;28;19916;-75
2024/01/12 02:34:10;;;;;;;;;;;;;;;2.94;100.00;103470.66;5043313;28;19940;-75
2024/01/12 02:36:35;;;;;;;;;;;;;;;2.97;100.00;103478.53;5048356;28;19924;-75
2024/01/12 02:39:00;;;;;;;;;;;;;;;3.02;100.00;103482.13;5046466;28;19917;-75
2024/01/12 02:41:26;;;;;;;;;;;;;;;3.01;100.00;103481.25;5047451;28;19931;-75
2024/01/12 02:43:52;;;;;;;;;;;;;;;3.01;100.00;103481.25;5045783;28;19976;-75
2024/01/12 02:46:17;;;;;;;;;;;;;;;3.05;100.00;103471.88;5046673;28;20185;-76
2024/01/12 02:48:42;;;;;;;;;;;;;;;3.11;100.00;103472.09;5043710;28;19917;-75
2024/01/12 02:51:07;;;;;;;;;;;;;;;3.11;100.00;103471.19;5036072;28;19987;-75
2024/01/12 02:53:33;;;;;;;;;;;;;;;3.15;100.00;103465.31;5038222;28;20143;-75
2024/01/12 02:55:58;;;;;;;;;;;;;;;3.15;100.00;103468.78;5039792;28;20204;-75
2024/01/12 02:58:24;;;;;;;;;;;;;;;3.11;100.00;103460.84;5030135;28;19913;-75
2024/01/12 03:00:49;;;;;;;;;;;;;;;3.12;100.00;103455.72;5029775;28;19917;-76
2024/01/12 03:03:14;;;;;;;;;;;;;;;3.07;100.00;103459.88;5030099;28;19917;-75
2024/01/12 03:05:39;;;;;;;;;;;;;;;3.05;100.00;103456.34;5030240;28;19944;-75
2024/01/12 03:08:05;;;;;;;;;;;;;;;3.08;100.00;103457.34;5035003;28;19920;-75
2024/01/12 03:10:30;;;;;;;;;;;;;;;3.06;100.00;103452.94;5033295;28;19917;-76
2024/01/12 03:12:55;;;;;;;;;;;;;;;3.00;100.00;103444.97;5029598;28;20211;-76
2024/01/12 03:15:20;;;;;;;;;;;;;;;3.01;100.00;103444.16;5034546;28;20130;-76
2024/01/12 03:17:46;;;;;;;;;;;;;;;2.99;100.00;103445.81;5033093;28;19927;-73
2024/01/12 03:20:11;;;;;;;;;;;;;;;3.00;100.00;103439.78;5032545;28;19921;-73
2024/01/12 03:22:36;;;;;;;;;;;;;;;3.02;100.00;103440.72;5043580;28;19962;-73
2024/01/12 03:25:02;;;;;;;;;;;;;;;2.99;100.00;103441.50;5020793;28;19923;-73
2024/01/12 03:27:27;;;;;;;;;;;;;;;2.94;100.00;103445.66;5018715;28;19956;-73
2024/01/12 03:29:52;;;;;;;;;;;;;;;2.92;100.00;103446.44;5034249;28;20211;-72
2024/01/12 03:32:18;;;;;;;;;;;;;;;2.89;100.00;103439.44;5026251;28;19924;-72
2024/01/12 03:34:43;;;;;;;;;;;;;;;2.86;100.00;103442.81;5015502;28;19920;-72
2024/01/12 03:37:08;;;;;;;;;;;;;;;2.86;100.00;103441.94;5019404;28;20008;-72
2024/01/12 03:39:33;;;;;;;;;;;;;;;2.85;100.00;103445.34;5017741;28;19924;-72
2024/01/12 03:41:59;;;;;;;;;;;;;;;2.84;100.00;103441.88;5037724;28;19920;-72
2024/01/12 03:44:24;;;;;;;;;;;;;;;2.83;100.00;103444.41;5037057;28;19942;-72
2024/01/12 03:46:49;;;;;;;;;;;;;;;2.82;100.00;103433.19;5035690;28;19917;-72
2024/01/12 03:49:14;;;;;;;;;;;;;;;2.81;100.00;103438.31;5037238;28;19916;-72
2024/01/12 03:51:43;;;;;;;;;;;;;;;2.80;100.00;103426.19;5037741;28;20051;-72
2024/01/12 03:54:08;;;;;;;;;;;;;;;2.79;100.00;103419.28;5024328;28;19959;-72
2024/01/12 03:56:34;;;;;;;;;;;;;;;2.77;100.00;103423.53;5029402;28;19924;-72
2024/01/12 03:58:59;;;;;;;;;;;;;;;2.76;100.00;103409.69;5025589;28;19948;-72
2024/01/12 04:01:24;;;;;;;;;;;;;;;2.76;100.00;103420.03;5024658;28;19924;-72
2024/01/12 04:03:49;;;;;;;;;;;;;;;2.75;100.00;103419.97;5035060;28;19916;-72
2024/01/12 04:06:15;;;;;;;;;;;;;;;2.73;100.00;103416.47;5055909;28;19916;-72
2024/01/12 04:08:40;;;;;;;;;;;;;;;2.73;100.00;103417.38;5038653;28;19924;-72
2024/01/12 04:11:05;;;;;;;;;;;;;;;2.74;100.00;103415.66;5036677;28;20174;-72
2024/01/12 04:13:31;;;;;;;;;;;;;;;2.73;100.00;103412.19;5034549;28;20210;-72
2024/01/12 04:15:56;;;;;;;;;;;;;;;2.71;100.00;103412.94;5023162;28;19920;-72
2024/01/12 04:18:21;;;;;;;;;;;;;;;2.67;100.00;103415.47;5022720;28;20054;-72
2024/01/12 04:20:46;;;;;;;;;;;;;;;2.67;100.00;103422.31;5028545;28;20200;-72
2024/01/12 04:23:11;;;;;;;;;;;;;;;2.67;100.00;103430.06;5035089;28;20128;-72
2024/01/12 04:25:37;;;;;;;;;;;;;;;2.66;100.00;103430.94;5026384;28;20151;-72
2024/01/12 04:28:02;;;;;;;;;;;;;;;2.64;100.00;103427.41;5037053;28;20116;-72
2024/01/12 04:30:27;;;;;;;;;;;;;;;2.64;100.00;103432.59;5036487;28;20259;-72
2024/01/12 04:32:53;;;;;;;;;;;;;;;2.62;100.00;103429.03;5035247;28;20086;-72
2024/01/12 04:35:18;;;;;;;;;;;;;;;2.63;100.00;103431.69;5029154;28;19917;-73
2024/01/12 04:37:43;;;;;;;;;;;;;;;2.63;100.00;103436.00;5036701;28;19959;-72
2024/01/12 04:40:09;;;;;;;;;;;;;;;2.60;100.00;103441.03;5035336;28;19984;-72
2024/01/12 04:42:34;;;;;;;;;;;;;;;2.59;100.00;103436.72;5032137;28;19928;-72
2024/01/12 04:44:59;;;;;;;;;;;;;;;2.58;100.00;103435.81;5026352;28;19917;-72
2024/01/12 04:47:24;;;;;;;;;;;;;;;2.59;100.00;103428.97;5054052;28;20136;-73
2024/01/12 04:49:49;;;;;;;;;;;;;;;2.60;100.00;103428.13;5043459;28;20200;-72
2024/01/12 04:52:15;;;;;;;;;;;;;;;2.59;100.00;103427.25;5036598;28;19913;-72
2024/01/12 04:54:40;;;;;;;;;;;;;;;2.56;100.00;103423.66;5035223;28;19923;-73
2024/01/12 04:57:05;;;;;;;;;;;;;;;2.55;100.00;103417.63;5029887;28;19913;-73
2024/01/12 04:59:30;;;;;;;;;;;;;;;2.53;100.00;103419.28;5024393;28;19921;-72
2024/01/12 05:01:56;;;;;;;;;;;;;;;2.51;100.00;103420.94;5024333;28;20210;-73
2024/01/12 05:04:21;;;;;;;;;;;;;;;2.48;100.00;103415.66;5032169;28;20246;-72
2024/01/12 05:06:46;;;;;;;;;;;;;;;2.45;100.00;103411.22;5035890;28;20216;-73
2024/01/12 05:09:11;;;;;;;;;;;;;;;2.45;100.00;103402.59;5033805;28;20122;-72
2024/01/12 05:11:37;;;;;;;;;;;;;;;2.43;100.00;103404.25;5054824;28;20107;-72
2024/01/12 05:14:02;;;;;;;;;;;;;;;2.40;100.00;103411.91;5035612;28;20151;-73
2024/01/12 05:16:27;;;;;;;;;;;;;;;2.40;100.00;103411.91;5036573;28;20240;-72
2024/01/12 05:18:52;;;;;;;;;;;;;;;2.39;100.00;103417.94;5030410;28;19921;-73
2024/01/12 05:21:18;;;;;;;;;;;;;;;2.41;100.00;103429.19;5035018;28;20216;-73
2024/01/12 05:23:46;;;;;;;;;;;;;;;2.41;100.00;103421.44;5035879;28;20317;-73
2024/01/12 05:26:14;;;;;;;;;;;;;;;2.43;100.00;103422.38;5035711;28;19995;-73
2024/01/12 05:28:39;;;;;;;;;;;;;;;2.45;100.00;103425.88;5043870;28;19927;-73
2024/01/12 05:31:04;;;;;;;;;;;;;;;2.46;100.00;103423.34;5048657;28;19944;-73
2024/01/12 05:33:29;;;;;;;;;;;;;;;2.46;100.00;103420.78;5036294;28;19913;-73
2024/01/12 05:35:55;;;;;;;;;;;;;;;2.46;100.00;103422.50;5035511;28;20295;-73
2024/01/12 05:38:20;;;;;;;;;;;;;;;2.44;100.00;103425.00;5046857;28;19990;-73
2024/01/12 05:40:45;;;;;;;;;;;;;;;2.43;100.00;103425.81;5038263;28;19982;-73
2024/01/12 05:43:10;;;;;;;;;;;;;;;2.39;100.00;103417.94;5036985;28;19917;-73
2024/01/12 05:45:36;;;;;;;;;;;;;;;2.37;100.00;103424.75;5043281;28;19929;-73
2024/01/12 05:48:01;;;;;;;;;;;;;;;2.36;100.00;103426.44;5037878;28;19940;-73
2024/01/12 05:50:27;;;;;;;;;;;;;;;2.36;100.00;103421.28;5045468;28;19917;-72
2024/01/12 05:52:52;;;;;;;;;;;;;;;2.34;100.00;103428.09;5036308;28;19909;-72
2024/01/12 05:55:17;;;;;;;;;;;;;;;2.32;100.00;103414.25;5042515;28;19948;-73
2024/01/12 05:57:42;;;;;;;;;;;;;;;2.29;100.00;103422.78;5049102;28;19920;-73
2024/01/12 06:00:09;;;;;;;;;;;;;;;2.28;100.00;103423.59;5052719;28;19939;-73
2024/01/12 06:02:34;;;;;;;;;;;;;;;2.25;100.00;103420.03;5045591;28;19948;-72
2024/01/12 06:04:59;;;;;;;;;;;;;;;2.18;100.00;103421.50;5038887;28;19917;-73
2024/01/12 06:07:24;;;;;;;;;;;;;;;2.21;100.00;103426.78;5039336;28;19917;-73
2024/01/12 06:09:50;;;;;;;;;;;;;;;2.23;100.00;103424.25;5042115;28;19924;-73
2024/01/12 06:12:15;;;;;;;;;;;;;;;2.21;100.00;103415.56;5049871;28;19925;-73
2024/01/12 06:14:41;;;;;;;;;;;;;;;2.21;100.00;103420.75;5040097;28;19923;-73
2024/01/12 06:17:08;;;;;;;;;;;;;;;2.13;100.00;103433.41;5039479;28;19925;-72
2024/01/12 06:19:36;;;;;;;;;;;;;;;2.14;100.00;103429.09;5044643;28;19956;-73
2024/01/12 06:22:01;;;;;;;;;;;;;;;2.13;100.00;103428.25;5036333;28;19939;-73
2024/01/12 06:24:26;;;;;;;;;;;;;;;2.18;100.00;103426.66;5035348;28;20239;-73
2024/01/12 06:26:52;;;;;;;;;;;;;;;2.21;100.00;103426.78;5034956;28;20515;-72
2024/01/12 06:29:17;;;;;;;;;;;;;;;2.22;100.00;103432.84;5030760;28;20204;-73
2024/01/12 06:31:42;;;;;;;;;;;;;;;2.22;100.00;103435.41;5025187;28;19917;-72
2024/01/12 06:34:07;;;;;;;;;;;;;;;2.22;100.00;103441.50;5028180;28;19913;-73
2024/01/12 06:36:33;;;;;;;;;;;;;;;2.23;100.00;103440.66;5038768;28;19978;-73
2024/01/12 06:38:58;;;;;;;;;;;;;;;2.19;100.00;103436.19;5043610;28;20092;-73
2024/01/12 06:41:23;;;;;;;;;;;;;;;2.14;100.00;103442.03;5046318;28;19916;-73
2024/01/12 06:43:48;;;;;;;;;;;;;;;2.13;100.00;103432.50;5034864;28;19913;-72
2024/01/12 06:46:14;;;;;;;;;;;;;;;2.17;100.00;103434.41;5031022;28;19998;-73
2024/01/12 06:48:39;;;;;;;;;;;;;;;2.20;100.00;103432.81;5030092;28;19944;-73
2024/01/12 06:51:04;;;;;;;;;;;;;;;2.19;100.00;103431.03;5031447;28;19917;-73
2024/01/12 06:53:29;;;;;;;;;;;;;;;2.17;100.00;103437.84;5032406;28;19935;-73
2024/01/12 06:55:55;;;;;;;;;;;;;;;2.18;100.00;103433.56;5040891;28;19917;-73
2024/01/12 06:58:21;;;;;;;;;;;;;;;2.18;100.00;103436.13;5027791;28;19921;-73
2024/01/12 07:00:46;;;;;;;;;;;;;;;2.17;100.00;103443.03;5030040;28;19984;-72
2024/01/12 07:03:11;;;;;;;;;;;;;;;2.16;100.00;103448.13;5028700;28;19916;-73
2024/01/12 07:05:37;;;;;;;;;;;;;;;2.10;100.00;103446.22;5033353;28;19916;-73
2024/01/12 07:08:02;;;;;;;;;;;;;;;2.15;100.00;103439.50;5019776;28;19992;-73
2024/01/12 07:10:27;;;;;;;;;;;;;;;2.17;100.00;103443.03;5028136;28;19944;-72
2024/01/12 07:12:53;;;;;;;;;;;;;;;2.14;100.00;103440.31;5031084;28;19975;-73
2024/01/12 07:15:18;;;;;;;;;;;;;;;2.14;100.00;103434.28;5025823;28;20144;-73
2024/01/12 07:17:45;;;;;;;;;;;;;;;2.16;100.00;103433.50;5027797;28;20135;-73
2024/01/12 07:20:11;;;;;;;;;;;;;;;2.18;100.00;103431.84;5028179;28;19920;-73
2024/01/12 07:22:37;;;;;;;;;;;;;;;2.15;100.00;103434.34;5030315;28;20420;-73
2024/01/12 07:25:02;;;;;;;;;;;;;;;2.09;100.00;103436.69;5028780;28;20513;-73
2024/01/12 07:27:27;;;;;;;;;;;;;;;2.05;100.00;103445.16;5027373;28;19940;-73
2024/01/12 07:29:53;;;;;;;;;;;;;;;2.05;100.00;103434.81;5027811;28;19917;-73
2024/01/12 07:32:18;;;;;;;;;;;;;;;2.11;100.00;103430.75;5028000;28;19927;-73
2024/01/12 07:34:43;;;;;;;;;;;;;;;2.16;100.00;103435.22;5025199;28;19952;-73
2024/01/12 07:37:08;;;;;;;;;;;;;;;2.18;100.00;103424.09;5028266;28;19925;-73
2024/01/12 07:39:34;;;;;;;;;;;;;;;2.19;100.00;103423.28;5026066;28;19917;-73
2024/01/12 07:41:59;;;;;;;;;;;;;;;2.17;100.00;103429.22;5025649;28;20231;-73
2024/01/12 07:44:24;;;;;;;;;;;;;;;2.16;100.00;103430.91;5026481;28;20270;-73
2024/01/12 07:46:49;;;;;;;;;;;;;;;2.15;100.00;103430.84;5026557;28;19924;-73
2024/01/12 07:49:15;;;;;;;;;;;;;;;2.14;100.00;103423.94;5024914;28;19921;-73
2024/01/12 07:51:40;;;;;;;;;;;;;;;2.12;100.00;103429.03;5022351;28;19925;-73
2024/01/12 07:54:06;;;;;;;;;;;;;;;2.17;100.00;103431.81;5016492;28;19952;-73
2024/01/12 07:56:31;;;;;;;;;;;;;;;2.19;100.00;103431.03;5017424;28;19917;-73
2024/01/12 07:58:57;;;;;;;;;;;;;;;2.16;100.00;103425.75;5024229;28;19916;-73
2024/01/12 08:01:23;;;;;;;;;;;;;;;2.15;100.00;103425.69;5036054;28;19936;-73
2024/01/12 08:03:48;;;;;;;;;;;;;;;2.18;100.00;103418.03;5037497;28;20147;-73
2024/01/12 08:06:14;;;;;;;;;;;;;;;2.15;100.00;103421.41;5036886;28;19913;-73
2024/01/12 08:08:40;;;;;;;;;;;;;;;2.14;100.00;103436.88;5036132;28;19913;-73
2024/01/12 08:11:05;;;;;;;;;;;;;;;2.16;100.00;103433.50;5035875;28;20239;-73
2024/01/12 08:13:30;;;;;;;;;;;;;;;2.18;100.00;103439.59;5034671;28;19913;-73
2024/01/12 08:15:57;;;;;;;;;;;;;;;2.16;100.00;103438.66;5024665;28;19983;-73
2024/01/12 08:18:22;;;;;;;;;;;;;;;2.15;100.00;103434.34;5047088;28;19917;-73
2024/01/12 08:20:48;;;;;;;;;;;;;;;2.19;100.00;103437.91;5032878;28;19960;-73
2024/01/12 08:23:15;;;;;;;;;;;;;;;2.21;100.00;103437.13;5016516;28;19925;-73
2024/01/12 08:25:40;;;;;;;;;;;;;;;2.20;100.00;103440.56;5016711;28;19974;-73
2024/01/12 08:28:05;;;;;;;;;;;;;;;2.21;100.00;103429.38;5016817;28;20209;-73
2024/01/12 08:30:30;;;;;;;;;;;;;;;2.22;100.00;103438.00;5017636;28;19983;-73
2024/01/12 08:32:56;;;;;;;;;;;;;;;2.24;100.00;103439.84;5013152;28;20173;-73
2024/01/12 08:35:21;;;;;;;;;;;;;;;2.27;100.00;103451.97;5012516;28;19921;-73
2024/01/12 08:37:46;;;;;;;;;;;;;;;2.27;100.00;103451.97;5013674;28;19925;-73
2024/01/12 08:40:11;;;;;;;;;;;;;;;2.27;100.00;103449.41;5018022;28;19925;-73
2024/01/12 08:42:39;;;;;;;;;;;;;;;2.27;100.00;103449.41;5007722;28;19914;-73
2024/01/12 08:45:04;;;;;;;;;;;;;;;2.27;100.00;103446.81;5013244;28;20101;-73
2024/01/12 08:47:29;;;;;;;;;;;;;;;2.29;100.00;103456.41;5020115;28;19959;-73
2024/01/12 08:49:55;;;;;;;;;;;;;;;2.27;100.00;103455.47;5014992;28;20224;-73
2024/01/12 08:52:20;;;;;;;;;;;;;;;2.30;100.00;103452.09;5015501;28;20163;-73
2024/01/12 08:54:45;;;;;;;;;;;;;;;2.32;100.00;103447.84;5015276;28;19918;-73
2024/01/12 08:57:11;;;;;;;;;;;;;;;2.35;100.00;103458.31;5013778;28;19931;-73
2024/01/12 08:59:36;;;;;;;;;;;;;;;2.39;100.00;103455.00;5012674;28;19917;-73
2024/01/12 09:02:01;;;;;;;;;;;;;;;2.42;100.00;103456.81;5016096;28;19917;-73
2024/01/12 09:04:28;;;;;;;;;;;;;;;2.50;100.00;103452.81;5012139;28;20113;-73
2024/01/12 09:06:53;;;;;;;;;;;;;;;2.54;100.00;103454.66;5015243;28;19923;-73
2024/01/12 09:09:18;;;;;;;;;;;;;;;2.59;100.00;103445.34;5015126;28;20128;-73
2024/01/12 09:11:44;;;;;;;;;;;;;;;2.64;100.00;103446.41;5011536;28;19924;-73
2024/01/12 09:14:10;;;;;;;;;;;;;;;2.72;100.00;103444.06;5011488;28;19917;-73
2024/01/12 09:16:35;;;;;;;;;;;;;;;2.79;100.00;103446.03;5015070;28;19936;-73
2024/01/12 09:19:00;;;;;;;;;;;;;;;2.82;100.00;103438.38;5017527;28;20192;-73
2024/01/12 09:21:26;;;;;;;;;;;;;;;2.85;100.00;103438.44;5034014;28;19917;-73
2024/01/12 09:23:51;;;;;;;;;;;;;;;2.91;100.00;103431.72;5034760;28;19994;-73
2024/01/12 09:26:16;;;;;;;;;;;;;;;2.94;100.00;103443.06;5035774;28;19952;-73
2024/01/12 09:28:42;;;;;;;;;;;;;;;2.96;100.00;103441.41;5026139;28;19971;-73
2024/01/12 09:31:08;;;;;;;;;;;;;;;2.99;100.00;103440.63;5035558;28;19916;-73
2024/01/12 09:33:33;;;;;;;;;;;;;;;3.02;100.00;103443.28;5033775;28;19912;-73
2024/01/12 09:35:58;;;;;;;;;;;;;;;3.06;100.00;103437.41;5028898;28;19924;-73
2024/01/12 09:38:23;;;;;;;;;;;;;;;3.10;100.00;103438.38;5023000;28;20338;-73
2024/01/12 09:40:49;;;;;;;;;;;;;;;3.15;100.00;103444.59;5024352;28;20102;-73
2024/01/12 09:43:15;;;;;;;;;;;;;;;3.19;100.00;103443.88;5023999;28;19913;-73
2024/01/12 09:45:44;;;;;;;;;;;;;;;3.18;100.00;103442.97;5025610;28;19912;-73
2024/01/12 09:48:09;;;;;;;;;;;;;;;3.22;100.00;103455.19;5035000;28;19932;-73
2024/01/12 09:50:34;;;;;;;;;;;;;;;3.23;100.00;103456.94;5031933;28;19917;-73
2024/01/12 09:53:00;;;;;;;;;;;;;;;3.26;100.00;103451.00;5032547;28;19944;-73
2024/01/12 09:55:25;;;;;;;;;;;;;;;3.29;100.00;103451.06;5029445;28;19913;-73
2024/01/12 09:57:50;;;;;;;;;;;;;;;3.31;100.00;103449.44;5023161;28;20224;-73
2024/01/12 10:00:17;;;;;;;;;;;;;;;3.36;100.00;103454.75;5032389;28;19913;-73
2024/01/12 10:02:42;;;;;;;;;;;;;;;3.40;100.00;103448.81;5032632;28;19924;-73
2024/01/12 10:05:08;;;;;;;;;;;;;;;3.39;100.00;103452.25;5025494;28;20019;-73
2024/01/12 10:07:33;;;;;;;;;;;;;;;3.38;100.00;103441.00;5023871;28;19916;-73
2024/01/12 10:09:59;;;;;;;;;;;;;;;3.39;100.00;103444.47;5022109;28;19917;-73
2024/01/12 10:12:24;;;;;;;;;;;;;;;3.40;100.00;103451.41;5027104;28;20223;-73
2024/01/12 10:15:02;;;;;;;;;;;;;;;3.41;100.00;103454.06;5029653;28;20001;-73
2024/01/12 10:17:29;;;;;;;;;;;;;;;3.47;100.00;103450.75;5030021;28;19928;-73
2024/01/12 10:19:55;;;;;;;;;;;;;;;3.49;100.00;103450.81;5017946;28;20223;-73
2024/01/12 10:22:20;;;;;;;;;;;;;;;3.51;100.00;103457.81;5038687;28;19924;-73
2024/01/12 10:24:45;;;;;;;;;;;;;;;3.54;100.00;103451.84;5032423;28;19917;-73
2024/01/12 10:27:12;;;;;;;;;;;;;;;3.55;100.00;103445.84;5032235;28;20124;-73
2024/01/12 10:29:40;;;;;;;;;;;;;;;3.55;100.00;103446.72;5039177;28;19975;-73
2024/01/12 10:32:06;;;;;;;;;;;;;;;3.58;100.00;103451.97;5027522;28;19924;-73
2024/01/12 10:34:35;;;;;;;;;;;;;;;3.61;100.00;103449.47;5039866;28;20079;-73
2024/01/12 10:37:02;;;;;;;;;;;;;;;3.63;100.00;103442.63;5036902;28;20243;-73
2024/01/12 10:39:29;;;;;;;;;;;;;;;3.64;100.00;103438.34;5031334;28;19920;-73
2024/01/12 10:41:57;;;;;;;;;;;;;;;3.63;100.00;103434.84;5031088;28;20291;-73
2024/01/12 10:44:24;;;;;;;;;;;;;;;3.65;100.00;103424.53;5038994;28;19917;-73
2024/01/12 10:46:52;;;;;;;;;;;;;;;3.67;100.00;103428.03;5039011;28;19916;-73
2024/01/12 10:49:18;;;;;;;;;;;;;;;3.68;100.00;103426.34;5036935;28;19979;-73
2024/01/12 10:51:58;;;;;;;;;;;;;;;3.70;100.00;103428.13;5037960;28;19963;-73
2024/01/12 10:54:26;;;;;;;;;;;;;;;3.71;100.00;103422.13;5040610;28;19927;-73
2024/01/12 10:56:53;;;;;;;;;;;;;;;3.71;100.00;103416.94;5038589;28;20015;-73
2024/01/12 10:59:18;;;;;;;;;;;;;;;3.75;100.00;103417.94;5040315;28;19928;-73
2024/01/12 11:01:44;;;;;;;;;;;;;;;3.78;100.00;103415.41;5040283;28;19916;-73
2024/01/12 11:04:09;;;;;;;;;;;;;;;3.80;100.00;103416.31;5042264;28;20207;-73
2024/01/12 11:06:35;;;;;;;;;;;;;;;3.80;100.00;103413.72;5042377;28;19983;-73
2024/01/12 11:09:01;;;;;;;;;;;;;;;3.83;100.00;103403.44;5038063;28;19971;-73
2024/01/12 11:11:31;;;;;;;;;;;;;;;3.85;100.00;103401.78;5031397;28;19921;-73
2024/01/12 11:13:57;;;;;;;;;;;;;;;3.87;100.00;103405.28;5029997;28;19917;-73
2024/01/12 11:16:22;;;;;;;;;;;;;;;3.87;100.00;103405.28;5031324;28;19917;-73
2024/01/12 11:18:47;;;;;;;;;;;;;;;3.89;100.00;103403.63;5031061;28;20178;-73
2024/01/12 11:21:21;;;;;;;;;;;;;;;3.90;100.00;103410.56;5031048;28;19921;-73
2024/01/12 11:23:47;;;;;;;;;;;;;;;3.92;100.00;103419.25;5031177;28;19916;-73
2024/01/12 11:26:13;;;;;;;;;;;;;;;3.90;100.00;103413.16;5030623;28;20583;-73
2024/01/12 11:28:38;;;;;;;;;;;;;;;3.88;100.00;103414.84;5030791;28;19944;-73
2024/01/12 11:31:04;;;;;;;;;;;;;;;3.91;100.00;103412.34;5031393;28;19924;-73
2024/01/12 11:33:31;;;;;;;;;;;;;;;3.91;100.00;103411.44;5032471;28;20275;-73
2024/01/12 11:36:01;;;;;;;;;;;;;;;3.93;100.00;103420.13;5030932;28;19959;-73
2024/01/12 11:38:26;;;;;;;;;;;;;;;3.97;100.00;103416.81;5037212;28;21267;-73
2024/01/12 11:40:51;;;;;;;;;;;;;;;3.95;100.00;103424.53;5039572;28;19924;-73
2024/01/12 11:43:17;;;;;;;;;;;;;;;3.96;100.00;103417.63;5043030;28;20274;-73
2024/01/12 11:45:43;;;;;;;;;;;;;;;3.97;100.00;103411.63;5038628;28;20133;-73
2024/01/12 11:48:12;;;;;;;;;;;;;;;3.96;100.00;103408.13;5037423;28;20211;-73
2024/01/12 11:50:38;;;;;;;;;;;;;;;3.98;100.00;103395.22;5038874;28;19940;-73
2024/01/12 11:53:03;;;;;;;;;;;;;;;3.98;100.00;103400.41;5029006;28;19963;-73
2024/01/12 11:55:30;;;;;;;;;;;;;;;4.00;100.00;103396.13;5031315;28;19921;-73
2024/01/12 11:57:55;;;;;;;;;;;;;;;4.02;100.00;103389.28;5040375;28;20211;-73
2024/01/12 12:00:21;;;;;;;;;;;;;;;4.04;100.00;103392.81;5036017;28;19916;-73
2024/01/12 12:02:47;;;;;;;;;;;;;;;4.03;100.00;103378.06;5038024;28;20743;-73
2024/01/12 12:05:12;;;;;;;;;;;;;;;4.07;100.00;103382.50;5038868;28;19917;-73
2024/01/12 12:07:38;;;;;;;;;;;;;;;4.08;100.00;103381.69;5031157;28;20467;-73
2024/01/12 12:10:05;;;;;;;;;;;;;;;4.09;100.00;103369.56;5031451;28;20208;-73
2024/01/12 12:12:30;;;;;;;;;;;;;;;4.09;100.00;103364.41;5043219;28;20158;-73
2024/01/12 12:15:01;;;;;;;;;;;;;;;4.11;100.00;103368.81;5032045;28;19974;-73
2024/01/12 12:17:27;;;;;;;;;;;;;;;4.12;100.00;103364.50;5030269;28;19928;-73
2024/01/12 12:19:53;;;;;;;;;;;;;;;4.14;100.00;103361.09;5029816;28;20169;-73
2024/01/12 12:22:19;;;;;;;;;;;;;;;4.18;100.00;103356.84;5030024;28;20262;-73
2024/01/12 12:24:44;;;;;;;;;;;;;;;4.20;100.00;103352.56;5030728;28;20142;-73
2024/01/12 12:27:10;;;;;;;;;;;;;;;4.24;100.00;103349.25;5029188;28;20139;-73